createdAt,value
2022-12-23T00:01:43.009Z,96690.41
2022-12-23T00:04:12.093Z,96690.13
2022-12-23T00:06:42.611Z,96678.22
2022-12-23T00:09:11.315Z,96681.31
2022-12-23T00:12:01.670Z,96685.03
2022-12-23T00:14:47.657Z,96666.81
2022-12-23T00:17:23.668Z,96671.16
2022-12-23T00:19:53.125Z,96659.72
2022-12-23T00:22:44.457Z,96664.66
2022-12-23T00:25:14.105Z,96662.88
2022-12-23T00:27:43.300Z,96675.25
2022-12-23T00:30:13.091Z,96670.28
2022-12-23T00:32:42.118Z,96667.84
2022-12-23T00:35:11.024Z,96671.97
2022-12-23T00:37:41.133Z,96676.28
2022-12-23T00:40:31.677Z,96666.16
2022-12-23T00:43:01.176Z,96670.69
2022-12-23T00:45:29.677Z,96664.72
2022-12-23T00:48:15.841Z,96668.84
2022-12-23T00:50:44.787Z,96665.13
2022-12-23T00:53:14.710Z,96656.06
2022-12-23T00:55:43.388Z,96665.91
2022-12-23T00:58:11.858Z,96674.56
2022-12-23T01:00:58.232Z,96684.31
2022-12-23T01:03:45.197Z,96677.44
2022-12-23T01:06:14.047Z,96680.72
2022-12-23T01:08:44.719Z,96673.84
2022-12-23T01:11:13.967Z,96681.47
2022-12-23T01:13:42.832Z,96685.59
2022-12-23T01:16:17.152Z,96681.47
2022-12-23T01:18:46.798Z,96679.16
2022-12-23T01:21:15.306Z,96680.06
2022-12-23T01:23:45.499Z,96682.69
2022-12-23T01:26:14.336Z,96693.28
2022-12-23T01:28:43.542Z,96688.22
2022-12-23T01:31:13.011Z,96684.06
2022-12-23T01:33:41.624Z,96690.84
2022-12-23T01:36:11.569Z,96683.63
2022-12-23T01:38:40.051Z,96691.84
2022-12-23T01:41:30.042Z,96699.88
2022-12-23T01:43:57.612Z,96697.56
2022-12-23T01:46:26.721Z,96707.16
2022-12-23T01:48:57.289Z,96698.59
2022-12-23T01:51:30.003Z,96703.72
2022-12-23T01:54:02.900Z,96696.31
2022-12-23T01:56:37.212Z,96706.84
2022-12-23T01:59:08.927Z,96722.81
2022-12-23T02:01:55.482Z,96713.88
2022-12-23T02:04:30.063Z,96717.59
2022-12-23T02:07:16.146Z,96708.97
2022-12-23T02:09:45.531Z,96718.34
2022-12-23T02:12:33.694Z,96717.03
2022-12-23T02:15:49.987Z,96725.38
2022-12-23T02:18:32.265Z,96722.91
2022-12-23T02:21:13.149Z,96732.91
2022-12-23T02:24:05.975Z,96735.78
2022-12-23T02:26:59.630Z,96744.13
2022-12-23T02:30:13.202Z,96739.13
2022-12-23T02:33:01.850Z,96744.59
2022-12-23T02:35:39.333Z,96737.97
2022-12-23T02:38:13.675Z,96737.47
2022-12-23T02:40:52.904Z,96736.97
2022-12-23T02:43:30.903Z,96740.94
2022-12-23T02:46:06.001Z,96741.97
2022-12-23T02:48:41.096Z,96747.53
2022-12-23T02:51:12.362Z,96745.84
2022-12-23T02:53:45.294Z,96744.19
2022-12-23T02:56:18.437Z,96747.00
2022-12-23T02:58:54.537Z,96752.28
2022-12-23T03:01:25.765Z,96756.72
2022-12-23T03:03:57.355Z,96763.22
2022-12-23T03:06:30.025Z,96765.59
2022-12-23T03:09:01.561Z,96764.47
2022-12-23T03:11:41.099Z,96767.75
2022-12-23T03:14:42.697Z,96769.72
2022-12-23T03:17:26.201Z,96771.69
2022-12-23T03:20:04.876Z,96777.28
2022-12-23T03:22:38.906Z,96785.00
2022-12-23T03:25:15.419Z,96776.25
2022-12-23T03:27:51.040Z,96771.00
2022-12-23T03:30:21.808Z,96778.50
2022-12-23T03:32:54.815Z,96789.84
2022-12-23T03:35:28.234Z,96797.69
2022-12-23T03:37:59.367Z,96792.63
2022-12-23T03:40:32.015Z,96789.34
2022-12-23T03:43:05.356Z,96792.94
2022-12-23T03:45:41.056Z,96794.06
2022-12-23T03:48:13.335Z,96799.94
2022-12-23T03:50:45.220Z,96800.78
2022-12-23T03:53:18.425Z,96811.94
2022-12-23T03:55:53.118Z,96810.38
2022-12-23T03:58:32.441Z,96813.78
2022-12-23T04:01:10.482Z,96820.06
2022-12-23T04:03:49.213Z,96823.38
2022-12-23T04:06:21.339Z,96843.38
2022-12-23T04:08:51.266Z,96846.13
2022-12-23T04:11:21.375Z,96842.91
2022-12-23T04:13:50.540Z,96849.41
2022-12-23T04:16:19.403Z,96849.50
2022-12-23T04:18:47.950Z,96842.50
2022-12-23T04:21:16.459Z,96859.28
2022-12-23T04:23:46.505Z,96847.88
2022-12-23T04:26:15.269Z,96851.00
2022-12-23T04:28:43.904Z,96848.31
2022-12-23T04:31:15.836Z,96853.78
2022-12-23T04:33:44.680Z,96851.94
2022-12-23T04:36:13.807Z,96856.84
2022-12-23T04:38:43.079Z,96854.41
2022-12-23T04:41:13.025Z,96860.50
2022-12-23T04:43:42.599Z,96863.97
2022-12-23T04:48:32.763Z,96870.09
2022-12-23T04:51:02.316Z,96870.28
2022-12-23T04:53:30.899Z,96880.56
2022-12-23T04:55:59.428Z,96871.94
2022-12-23T04:58:27.990Z,96878.00
2022-12-23T05:01:03.349Z,96871.09
2022-12-23T05:03:33.522Z,96882.97
2022-12-23T05:06:02.359Z,96880.50
2022-12-23T05:08:31.284Z,96887.69
2022-12-23T05:10:59.741Z,96891.09
2022-12-23T05:13:28.218Z,96892.75
2022-12-23T05:16:00.559Z,96882.44
2022-12-23T05:18:29.077Z,96892.84
2022-12-23T05:20:58.916Z,96900.69
2022-12-23T05:23:27.249Z,96903.38
2022-12-23T05:25:55.914Z,96892.13
2022-12-23T05:28:24.618Z,96892.03
2022-12-23T05:30:59.269Z,96893.69
2022-12-23T05:33:28.286Z,96895.53
2022-12-23T05:35:57.253Z,96902.44
2022-12-23T05:38:27.852Z,96905.75
2022-12-23T05:40:56.422Z,96904.09
2022-12-23T05:43:25.005Z,96911.13
2022-12-23T05:45:53.830Z,96913.78
2022-12-23T05:48:22.596Z,96912.59
2022-12-23T05:50:51.766Z,96914.34
2022-12-23T05:53:21.192Z,96917.94
2022-12-23T05:55:51.444Z,96919.91
2022-12-23T05:58:20.188Z,96915.75
2022-12-23T06:00:49.347Z,96915.25
2022-12-23T06:03:17.987Z,96910.28
2022-12-23T06:05:51.139Z,96934.31
2022-12-23T06:08:19.705Z,96930.91
2022-12-23T06:10:48.215Z,96943.38
2022-12-23T06:13:18.020Z,96938.03
2022-12-23T06:15:46.453Z,96932.78
2022-12-23T06:18:14.882Z,96938.03
2022-12-23T06:20:46.468Z,96932.28
2022-12-23T06:23:14.927Z,96933.28
2022-12-23T06:25:43.439Z,96938.44
2022-12-23T06:28:11.953Z,96942.88
2022-12-23T06:30:41.729Z,96945.72
2022-12-23T06:33:10.169Z,96949.97
2022-12-23T06:35:38.639Z,96950.97
2022-12-23T06:40:25.420Z,96954.78
2022-12-23T06:42:53.740Z,96953.31
2022-12-23T06:45:22.974Z,96948.16
2022-12-23T06:47:51.540Z,96955.06
2022-12-23T06:50:20.618Z,96954.53
2022-12-23T06:52:49.223Z,96948.56
2022-12-23T06:55:17.838Z,96950.31
2022-12-23T07:00:07.152Z,96961.34
2022-12-23T07:02:36.013Z,96964.13
2022-12-23T07:05:05.350Z,96966.78
2022-12-23T07:07:34.084Z,96959.97
2022-12-23T07:10:02.615Z,96958.41
2022-12-23T07:14:51.425Z,96975.44
2022-12-23T07:17:20.096Z,96966.03
2022-12-23T07:19:48.758Z,96972.75
2022-12-23T07:22:17.535Z,96969.44
2022-12-23T07:24:46.715Z,96968.44
2022-12-23T07:27:15.348Z,96971.91
2022-12-23T07:29:44.176Z,96972.13
2022-12-23T07:32:14.072Z,96972.84
2022-12-23T07:34:42.897Z,96981.50
2022-12-23T07:39:32.056Z,96977.91
2022-12-23T07:42:33.846Z,96987.47
2022-12-23T07:44:49.268Z,96984.00
2022-12-23T07:47:17.989Z,96972.66
2022-12-23T07:49:46.595Z,96979.66
2022-12-23T07:56:53.927Z,96978.09
2022-12-23T07:59:22.791Z,96976.25
2022-12-23T08:01:51.771Z,96982.22
2022-12-23T08:04:20.461Z,96978.84
2022-12-23T08:06:49.294Z,96979.47
2022-12-23T08:09:19.778Z,96974.84
2022-12-23T08:11:48.300Z,96983.19
2022-12-23T08:14:18.232Z,96990.91
2022-12-23T08:16:46.641Z,96996.81
2022-12-23T08:19:15.535Z,97001.78
2022-12-23T08:21:44.168Z,97002.63
2022-12-23T08:24:12.909Z,96999.38
2022-12-23T08:26:41.752Z,97006.09
2022-12-23T08:29:10.278Z,97014.75
2022-12-23T08:31:40.212Z,97015.56
2022-12-23T08:34:10.623Z,97017.34
2022-12-23T08:36:39.986Z,97008.94
2022-12-23T08:39:11.229Z,97017.34
2022-12-23T08:43:58.581Z,97011.88
2022-12-23T08:46:28.170Z,97012.22
2022-12-23T08:48:57.165Z,97011.03
2022-12-23T08:54:04.062Z,97010.53
2022-12-23T08:56:35.491Z,97009.34
2022-12-23T08:59:04.554Z,96998.81
2022-12-23T09:01:35.625Z,97004.63
2022-12-23T09:04:05.395Z,97010.50
2022-12-23T09:06:36.567Z,97008.66
2022-12-23T09:09:07.351Z,97018.88
2022-12-23T09:11:36.722Z,97011.88
2022-12-23T09:14:07.021Z,97015.28
2022-12-23T09:16:35.652Z,97014.13
2022-12-23T09:19:04.835Z,97007.84
2022-12-23T09:21:33.795Z,97011.25
2022-12-23T09:24:02.371Z,97010.34
2022-12-23T09:26:32.613Z,97008.50
2022-12-23T09:29:01.704Z,97006.53
2022-12-23T09:31:36.282Z,97010.75
2022-12-23T09:34:06.538Z,97009.63
2022-12-23T09:36:35.379Z,97012.13
2022-12-23T09:39:03.966Z,97013.78
2022-12-23T09:41:54.276Z,97007.38
2022-12-23T09:44:44.846Z,97000.47
2022-12-23T09:47:17.209Z,96996.03
2022-12-23T09:49:50.867Z,96993.88
2022-12-23T09:52:26.102Z,96994.91
2022-12-23T09:54:56.140Z,96990.25
2022-12-23T09:57:35.355Z,96995.00
2022-12-23T10:00:14.373Z,96994.00
2022-12-23T10:03:06.149Z,96993.47
2022-12-23T10:05:47.626Z,96983.88
2022-12-23T10:08:22.487Z,96982.13
2022-12-23T10:10:54.522Z,96965.91
2022-12-23T10:13:29.871Z,96971.59
2022-12-23T10:16:05.349Z,96966.34
2022-12-23T10:18:49.400Z,96959.50
2022-12-23T10:21:25.667Z,96955.06
2022-12-23T10:23:56.043Z,96960.22
2022-12-23T10:26:26.763Z,96962.94
2022-12-23T10:29:02.267Z,96961.25
2022-12-23T10:31:41.309Z,96959.41
2022-12-23T10:34:18.597Z,96949.72
2022-12-23T10:36:55.350Z,96952.31
2022-12-23T10:39:33.303Z,96949.59
2022-12-23T10:42:12.184Z,96931.44
2022-12-23T10:45:03.374Z,96933.69
2022-12-23T10:47:49.956Z,96943.09
2022-12-23T10:50:46.072Z,96931.00
2022-12-23T10:53:22.071Z,96925.53
2022-12-23T10:55:51.326Z,96932.03
2022-12-23T10:58:20.831Z,96937.31
2022-12-23T11:00:55.032Z,96931.41
2022-12-23T11:03:29.561Z,96927.91
2022-12-23T11:05:59.625Z,96924.47
2022-12-23T11:08:30.385Z,96918.41
2022-12-23T11:11:01.277Z,96923.44
2022-12-23T11:13:37.104Z,96924.16
2022-12-23T11:16:20.421Z,96923.25
2022-12-23T11:18:58.020Z,96914.56
2022-12-23T11:21:27.436Z,96911.56
2022-12-23T11:24:14.836Z,96906.19
2022-12-23T11:26:44.534Z,96900.19
2022-12-23T11:29:20.845Z,96897.63
2022-12-23T11:31:51.645Z,96894.19
2022-12-23T11:34:23.830Z,96883.16
2022-12-23T11:36:58.763Z,96880.38
2022-12-23T11:39:34.027Z,96878.59
2022-12-23T11:42:06.999Z,96873.53
2022-12-23T11:44:40.250Z,96868.50
2022-12-23T11:47:29.191Z,96864.16
2022-12-23T11:50:00.298Z,96857.34
2022-12-23T11:52:30.883Z,96845.25
2022-12-23T11:55:01.571Z,96846.09
2022-12-23T11:57:39.073Z,96845.38
2022-12-23T12:00:09.504Z,96849.81
2022-12-23T12:02:43.969Z,96834.94
2022-12-23T12:05:22.652Z,96834.81
2022-12-23T12:07:52.970Z,96827.19
2022-12-23T12:10:26.910Z,96821.91
2022-12-23T12:12:58.382Z,96819.63
2022-12-23T12:15:35.648Z,96806.91
2022-12-23T12:18:09.826Z,96805.84
2022-12-23T12:20:43.083Z,96809.16
2022-12-23T12:23:15.898Z,96805.53
2022-12-23T12:25:49.851Z,96800.50
2022-12-23T12:28:21.928Z,96799.41
2022-12-23T12:30:55.680Z,96802.13
2022-12-23T12:33:35.997Z,96794.63
2022-12-23T12:36:13.744Z,96791.19
2022-12-23T12:38:47.672Z,96786.63
2022-12-23T12:41:21.413Z,96781.47
2022-12-23T12:43:53.935Z,96778.78
2022-12-23T12:46:31.676Z,96772.91
2022-12-23T12:49:07.219Z,96771.97
2022-12-23T12:51:44.619Z,96763.41
2022-12-23T12:54:21.116Z,96766.09
2022-12-23T12:56:51.194Z,96753.63
2022-12-23T12:59:22.180Z,96758.69
2022-12-23T13:02:08.421Z,96753.31
2022-12-23T13:05:06.117Z,96746.47
2022-12-23T13:07:44.799Z,96750.13
2022-12-23T13:10:24.968Z,96747.63
2022-12-23T13:13:01.574Z,96745.19
2022-12-23T13:15:35.257Z,96740.97
2022-12-23T13:20:32.413Z,96720.31
2022-12-23T13:25:25.310Z,96716.78
2022-12-23T13:27:58.142Z,96720.31
2022-12-23T13:33:24.327Z,96705.63
2022-12-23T13:36:06.744Z,96709.03
2022-12-23T13:38:52.951Z,96704.13
2022-12-23T13:41:31.501Z,96695.31
2022-12-23T13:44:01.668Z,96702.00
2022-12-23T13:46:44.550Z,96697.88
2022-12-23T13:49:22.855Z,96697.88
2022-12-23T13:51:58.608Z,96694.50
2022-12-23T13:54:44.496Z,96689.34
2022-12-23T13:57:24.531Z,96695.31
2022-12-23T14:00:06.010Z,96698.59
2022-12-23T14:02:50.963Z,96696.28
2022-12-23T14:05:33.725Z,96693.69
2022-12-23T14:08:04.557Z,96702.47
2022-12-23T14:10:33.676Z,96700.84
2022-12-23T14:13:06.451Z,96696.03
2022-12-23T14:15:55.872Z,96690.16
2022-12-23T14:18:43.465Z,96689.66
2022-12-23T14:21:23.146Z,96690.66
2022-12-23T14:24:23.660Z,96689.78
2022-12-23T14:27:15.557Z,96696.59
2022-12-23T14:30:03.375Z,96692.41
2022-12-23T14:32:43.785Z,96692.34
2022-12-23T14:35:28.927Z,96689.97
2022-12-23T14:38:27.125Z,96687.25
2022-12-23T14:41:00.448Z,96692.59
2022-12-23T14:43:51.338Z,96693.06
2022-12-23T14:46:58.597Z,96686.81
2022-12-23T14:49:48.587Z,96688.72
2022-12-23T14:52:53.880Z,96686.44
2022-12-23T14:56:11.025Z,96675.63
2022-12-23T14:59:13.875Z,96678.22
2022-12-23T15:01:44.787Z,96685.00
2022-12-23T15:04:19.366Z,96679.50
2022-12-23T15:06:50.863Z,96676.53
2022-12-23T15:09:26.171Z,96673.03
2022-12-23T15:11:59.592Z,96682.75
2022-12-23T15:14:33.951Z,96682.75
2022-12-23T15:17:16.370Z,96677.84
2022-12-23T15:19:48.409Z,96684.28
2022-12-23T15:22:24.132Z,96682.28
2022-12-23T15:24:57.018Z,96692.47
2022-12-23T15:27:30.269Z,96691.19
2022-12-23T15:29:59.524Z,96697.16
2022-12-23T15:32:30.105Z,96696.44
2022-12-23T15:35:04.984Z,96688.25
2022-12-23T15:37:34.339Z,96694.94
2022-12-23T15:40:12.155Z,96702.00
2022-12-23T15:42:49.747Z,96697.44
2022-12-23T15:45:36.811Z,96714.38
2022-12-23T15:48:07.384Z,96701.00
2022-12-23T15:50:42.181Z,96712.38
2022-12-23T15:53:14.218Z,96716.00
2022-12-23T15:55:42.931Z,96722.91
2022-12-23T15:58:19.851Z,96726.69
2022-12-23T16:00:54.514Z,96722.34
2022-12-23T16:03:28.748Z,96729.38
2022-12-23T16:06:08.343Z,96715.41
2022-12-23T16:08:37.307Z,96719.50
2022-12-23T16:11:13.473Z,96709.63
2022-12-23T16:13:58.321Z,96704.06
2022-12-23T16:16:33.784Z,96706.78
2022-12-23T16:19:02.500Z,96710.09
2022-12-23T16:21:34.460Z,96721.03
2022-12-23T16:24:08.493Z,96730.19
2022-12-23T16:26:41.773Z,96713.75
2022-12-23T16:29:12.700Z,96703.88
2022-12-23T16:31:49.839Z,96694.78
2022-12-23T16:34:21.044Z,96707.47
2022-12-23T16:36:49.696Z,96711.03
2022-12-23T16:39:21.539Z,96705.97
2022-12-23T16:41:51.029Z,96711.16
2022-12-23T16:44:21.390Z,96713.50
2022-12-23T16:46:51.004Z,96721.16
2022-12-23T16:49:22.457Z,96725.50
2022-12-23T16:51:54.599Z,96713.75
2022-12-23T16:54:23.132Z,96726.59
2022-12-23T16:56:51.695Z,96719.53
2022-12-23T16:59:21.591Z,96710.44
2022-12-23T17:01:50.262Z,96729.25
2022-12-23T17:04:19.289Z,96717.28
2022-12-23T17:06:48.459Z,96720.66
2022-12-23T17:09:17.018Z,96727.94
2022-12-23T17:11:47.939Z,96715.97
2022-12-23T17:14:19.196Z,96712.19
2022-12-23T17:16:50.097Z,96711.63
2022-12-23T17:19:28.035Z,96705.41
2022-12-23T17:22:02.803Z,96707.38
2022-12-23T17:24:31.738Z,96708.22
2022-12-23T17:27:00.153Z,96708.34
2022-12-23T17:29:28.708Z,96709.53
2022-12-23T17:31:58.740Z,96707.38
2022-12-23T17:34:27.670Z,96711.97
2022-12-23T17:36:56.194Z,96711.84
2022-12-23T17:39:25.367Z,96704.66
2022-12-23T17:41:54.089Z,96723.25
2022-12-23T17:44:22.577Z,96708.34
2022-12-23T17:46:51.120Z,96700.97
2022-12-23T17:49:21.015Z,96714.09
2022-12-23T17:51:49.409Z,96709.19
2022-12-23T17:54:25.877Z,96709.66
